sensor_id;sensor_type;location;lat;lon;timestamp;temperature;humidity
25208;DHT22;13153;52.316;21.166;2022-07-30T00:00:04;18.10;99.90
25208;DHT22;13153;52.316;21.166;2022-07-30T00:02:33;18.10;99.90
25208;DHT22;13153;52.316;21.166;2022-07-30T00:04:58;18.00;99.90
25208;DHT22;13153;52.316;21.166;2022-07-30T00:07:24;18.00;99.90
25208;DHT22;13153;52.316;21.166;2022-07-30T00:09:50;18.00;99.90
25208;DHT22;13153;52.316;21.166;2022-07-30T00:12:16;18.00;99.90
25208;DHT22;13153;52.316;21.166;2022-07-30T00:14:41;18.00;99.90
25208;DHT22;13153;52.316;21.166;2022-07-30T00:17:07;17.90;99.90
25208;DHT22;13153;52.316;21.166;2022-07-30T00:19:33;18.00;99.90
25208;DHT22;13153;52.316;21.166;2022-07-30T00:21:59;18.00;99.90
25208;DHT22;13153;52.316;21.166;2022-07-30T00:24:25;18.00;99.90
25208;DHT22;13153;52.316;21.166;2022-07-30T00:26:51;18.00;99.90
25208;DHT22;13153;52.316;21.166;2022-07-30T00:29:16;18.00;99.90
25208;DHT22;13153;52.316;21.166;2022-07-30T00:31:42;18.00;99.90
25208;DHT22;13153;52.316;21.166;2022-07-30T00:34:08;18.00;99.90
25208;DHT22;13153;52.316;21.166;2022-07-30T00:36:34;18.00;99.90
25208;DHT22;13153;52.316;21.166;2022-07-30T00:39:00;18.00;99.90
25208;DHT22;13153;52.316;21.166;2022-07-30T00:41:26;17.90;99.90
25208;DHT22;13153;52.316;21.166;2022-07-30T00:43:52;17.90;99.90
25208;DHT22;13153;52.316;21.166;2022-07-30T00:46:18;18.00;99.90
25208;DHT22;13153;52.316;21.166;2022-07-30T00:48:44;18.00;99.90
25208;DHT22;13153;52.316;21.166;2022-07-30T00:51:11;18.00;99.90
25208;DHT22;13153;52.316;21.166;2022-07-30T00:53:37;18.00;99.90
25208;DHT22;13153;52.316;21.166;2022-07-30T00:56:03;18.10;99.90
25208;DHT22;13153;52.316;21.166;2022-07-30T00:58:30;18.10;99.90
25208;DHT22;13153;52.316;21.166;2022-07-30T01:00:55;18.10;99.90
25208;DHT22;13153;52.316;21.166;2022-07-30T01:03:21;18.20;99.90
25208;DHT22;13153;52.316;21.166;2022-07-30T01:05:47;18.10;99.90
25208;DHT22;13153;52.316;21.166;2022-07-30T01:08:13;18.10;99.90
25208;DHT22;13153;52.316;21.166;2022-07-30T01:10:39;18.00;99.90
25208;DHT22;13153;52.316;21.166;2022-07-30T01:13:05;18.00;99.90
25208;DHT22;13153;52.316;21.166;2022-07-30T01:15:32;18.00;99.90
25208;DHT22;13153;52.316;21.166;2022-07-30T01:18:01;18.00;99.90
25208;DHT22;13153;52.316;21.166;2022-07-30T01:20:35;18.00;99.90
25208;DHT22;13153;52.316;21.166;2022-07-30T01:23:24;17.90;99.90
25208;DHT22;13153;52.316;21.166;2022-07-30T01:25:57;18.00;99.90
25208;DHT22;13153;52.316;21.166;2022-07-30T01:28:32;17.90;99.90
25208;DHT22;13153;52.316;21.166;2022-07-30T01:31:02;17.90;99.90
25208;DHT22;13153;52.316;21.166;2022-07-30T01:33:30;17.90;99.90
25208;DHT22;13153;52.316;21.166;2022-07-30T01:35:59;17.80;99.90
25208;DHT22;13153;52.316;21.166;2022-07-30T01:38:28;17.80;99.90
25208;DHT22;13153;52.316;21.166;2022-07-30T01:40:56;17.80;99.90
25208;DHT22;13153;52.316;21.166;2022-07-30T01:43:24;17.70;99.90
25208;DHT22;13153;52.316;21.166;2022-07-30T01:45:52;17.70;99.90
25208;DHT22;13153;52.316;21.166;2022-07-30T01:48:22;17.70;99.90
25208;DHT22;13153;52.316;21.166;2022-07-30T01:50:52;17.70;99.90
25208;DHT22;13153;52.316;21.166;2022-07-30T01:53:24;17.70;99.90
25208;DHT22;13153;52.316;21.166;2022-07-30T01:55:53;17.70;99.90
25208;DHT22;13153;52.316;21.166;2022-07-30T01:58:25;17.70;99.90
25208;DHT22;13153;52.316;21.166;2022-07-30T02:00:55;17.70;99.90
25208;DHT22;13153;52.316;21.166;2022-07-30T02:03:24;17.70;99.90
25208;DHT22;13153;52.316;21.166;2022-07-30T02:05:55;17.70;99.90
25208;DHT22;13153;52.316;21.166;2022-07-30T02:08:26;17.70;99.90
25208;DHT22;13153;52.316;21.166;2022-07-30T02:11:05;17.70;99.90
25208;DHT22;13153;52.316;21.166;2022-07-30T02:13:39;17.80;99.90
25208;DHT22;13153;52.316;21.166;2022-07-30T02:16:18;17.80;99.90
25208;DHT22;13153;52.316;21.166;2022-07-30T02:21:34;17.80;99.90
25208;DHT22;13153;52.316;21.166;2022-07-30T02:24:06;17.80;99.90
25208;DHT22;13153;52.316;21.166;2022-07-30T02:26:37;17.80;99.90
25208;DHT22;13153;52.316;21.166;2022-07-30T02:29:05;17.70;99.90
25208;DHT22;13153;52.316;21.166;2022-07-30T02:31:33;17.70;99.90
25208;DHT22;13153;52.316;21.166;2022-07-30T02:34:03;17.70;99.90
25208;DHT22;13153;52.316;21.166;2022-07-30T02:36:32;17.70;99.90
25208;DHT22;13153;52.316;21.166;2022-07-30T02:39:02;17.70;99.90
25208;DHT22;13153;52.316;21.166;2022-07-30T02:41:30;17.70;99.90
25208;DHT22;13153;52.316;21.166;2022-07-30T02:43:57;17.70;99.90
25208;DHT22;13153;52.316;21.166;2022-07-30T02:46:24;17.70;99.90
25208;DHT22;13153;52.316;21.166;2022-07-30T02:48:52;17.60;99.90
25208;DHT22;13153;52.316;21.166;2022-07-30T02:51:21;17.60;99.90
25208;DHT22;13153;52.316;21.166;2022-07-30T02:53:49;17.60;99.90
25208;DHT22;13153;52.316;21.166;2022-07-30T02:56:18;17.50;99.90
25208;DHT22;13153;52.316;21.166;2022-07-30T02:58:48;17.50;99.90
25208;DHT22;13153;52.316;21.166;2022-07-30T03:01:17;17.50;99.90
25208;DHT22;13153;52.316;21.166;2022-07-30T03:03:46;17.50;99.90
25208;DHT22;13153;52.316;21.166;2022-07-30T03:06:14;17.50;99.90
25208;DHT22;13153;52.316;21.166;2022-07-30T03:08:41;17.40;99.90
25208;DHT22;13153;52.316;21.166;2022-07-30T03:11:10;17.40;99.90
25208;DHT22;13153;52.316;21.166;2022-07-30T03:13:37;17.40;99.90
25208;DHT22;13153;52.316;21.166;2022-07-30T03:16:06;17.40;99.90
25208;DHT22;13153;52.316;21.166;2022-07-30T03:18:35;17.40;99.90
25208;DHT22;13153;52.316;21.166;2022-07-30T03:21:05;17.40;99.90
25208;DHT22;13153;52.316;21.166;2022-07-30T03:23:35;17.40;99.90
25208;DHT22;13153;52.316;21.166;2022-07-30T03:26:03;17.40;99.90
25208;DHT22;13153;52.316;21.166;2022-07-30T03:28:33;17.40;99.90
25208;DHT22;13153;52.316;21.166;2022-07-30T03:31:04;17.40;99.90
25208;DHT22;13153;52.316;21.166;2022-07-30T03:33:31;17.30;99.90
25208;DHT22;13153;52.316;21.166;2022-07-30T03:35:59;17.40;99.90
25208;DHT22;13153;52.316;21.166;2022-07-30T03:38:26;17.40;99.90
25208;DHT22;13153;52.316;21.166;2022-07-30T03:40:53;17.40;99.90
25208;DHT22;13153;52.316;21.166;2022-07-30T03:43:20;17.50;99.90
25208;DHT22;13153;52.316;21.166;2022-07-30T03:45:46;17.50;99.90
25208;DHT22;13153;52.316;21.166;2022-07-30T03:48:14;17.50;99.90
25208;DHT22;13153;52.316;21.166;2022-07-30T03:50:41;17.50;99.90
25208;DHT22;13153;52.316;21.166;2022-07-30T03:53:09;17.60;99.90
25208;DHT22;13153;52.316;21.166;2022-07-30T03:55:35;17.60;99.90
25208;DHT22;13153;52.316;21.166;2022-07-30T03:58:02;17.60;99.90
25208;DHT22;13153;52.316;21.166;2022-07-30T04:00:28;17.60;99.90
25208;DHT22;13153;52.316;21.166;2022-07-30T04:02:54;17.60;99.90
25208;DHT22;13153;52.316;21.166;2022-07-30T04:05:21;17.70;99.90
25208;DHT22;13153;52.316;21.166;2022-07-30T04:07:47;17.70;99.90
25208;DHT22;13153;52.316;21.166;2022-07-30T04:10:14;17.70;99.90
25208;DHT22;13153;52.316;21.166;2022-07-30T04:12:41;17.70;99.90
25208;DHT22;13153;52.316;21.166;2022-07-30T04:15:08;17.70;99.90
25208;DHT22;13153;52.316;21.166;2022-07-30T04:17:38;17.70;99.90
25208;DHT22;13153;52.316;21.166;2022-07-30T04:20:12;17.60;99.90
25208;DHT22;13153;52.316;21.166;2022-07-30T04:22:43;17.60;99.90
25208;DHT22;13153;52.316;21.166;2022-07-30T04:25:10;17.50;99.90
25208;DHT22;13153;52.316;21.166;2022-07-30T04:27:38;17.50;99.90
25208;DHT22;13153;52.316;21.166;2022-07-30T04:30:05;17.50;99.90
25208;DHT22;13153;52.316;21.166;2022-07-30T04:32:32;17.50;99.90
25208;DHT22;13153;52.316;21.166;2022-07-30T04:34:58;17.60;99.90
25208;DHT22;13153;52.316;21.166;2022-07-30T04:37:25;17.70;99.90
25208;DHT22;13153;52.316;21.166;2022-07-30T04:39:52;17.70;99.90
25208;DHT22;13153;52.316;21.166;2022-07-30T04:42:26;17.70;99.90
25208;DHT22;13153;52.316;21.166;2022-07-30T04:44:53;17.70;99.90
25208;DHT22;13153;52.316;21.166;2022-07-30T04:47:20;17.70;99.90
25208;DHT22;13153;52.316;21.166;2022-07-30T04:49:47;17.60;99.90
25208;DHT22;13153;52.316;21.166;2022-07-30T04:52:14;17.60;99.90
25208;DHT22;13153;52.316;21.166;2022-07-30T04:54:56;17.70;99.90
25208;DHT22;13153;52.316;21.166;2022-07-30T04:57:26;17.70;99.90
25208;DHT22;13153;52.316;21.166;2022-07-30T04:59:53;17.80;99.90
25208;DHT22;13153;52.316;21.166;2022-07-30T05:02:19;17.90;99.90
25208;DHT22;13153;52.316;21.166;2022-07-30T05:04:48;18.00;99.90
25208;DHT22;13153;52.316;21.166;2022-07-30T05:07:15;18.10;99.90
25208;DHT22;13153;52.316;21.166;2022-07-30T05:09:42;18.30;99.90
25208;DHT22;13153;52.316;21.166;2022-07-30T05:12:08;18.50;99.90
25208;DHT22;13153;52.316;21.166;2022-07-30T05:14:34;18.50;99.90
25208;DHT22;13153;52.316;21.166;2022-07-30T05:17:01;18.60;99.90
25208;DHT22;13153;52.316;21.166;2022-07-30T05:19:26;19.20;99.90
25208;DHT22;13153;52.316;21.166;2022-07-30T05:21:52;19.80;99.90
25208;DHT22;13153;52.316;21.166;2022-07-30T05:24:18;20.10;99.90
25208;DHT22;13153;52.316;21.166;2022-07-30T05:26:44;20.10;99.90
25208;DHT22;13153;52.316;21.166;2022-07-30T05:29:10;20.00;99.90
25208;DHT22;13153;52.316;21.166;2022-07-30T05:31:36;19.80;99.90
25208;DHT22;13153;52.316;21.166;2022-07-30T05:34:02;19.40;99.90
25208;DHT22;13153;52.316;21.166;2022-07-30T05:36:28;19.20;99.90
25208;DHT22;13153;52.316;21.166;2022-07-30T05:38:54;19.00;99.90
25208;DHT22;13153;52.316;21.166;2022-07-30T05:41:19;18.90;99.90
25208;DHT22;13153;52.316;21.166;2022-07-30T05:43:45;18.80;99.90
25208;DHT22;13153;52.316;21.166;2022-07-30T05:46:11;18.70;99.90
25208;DHT22;13153;52.316;21.166;2022-07-30T05:48:38;18.60;99.90
25208;DHT22;13153;52.316;21.166;2022-07-30T05:51:04;18.60;99.90
25208;DHT22;13153;52.316;21.166;2022-07-30T05:53:30;18.60;99.90
25208;DHT22;13153;52.316;21.166;2022-07-30T05:55:57;18.60;99.90
25208;DHT22;13153;52.316;21.166;2022-07-30T05:58:23;18.60;99.90
25208;DHT22;13153;52.316;21.166;2022-07-30T06:00:49;18.60;99.90
25208;DHT22;13153;52.316;21.166;2022-07-30T06:03:14;18.60;99.90
25208;DHT22;13153;52.316;21.166;2022-07-30T06:05:40;18.50;99.90
25208;DHT22;13153;52.316;21.166;2022-07-30T06:08:07;18.60;99.90
25208;DHT22;13153;52.316;21.166;2022-07-30T06:10:33;18.60;99.90
25208;DHT22;13153;52.316;21.166;2022-07-30T06:12:59;18.60;99.90
25208;DHT22;13153;52.316;21.166;2022-07-30T06:15:25;18.60;99.90
25208;DHT22;13153;52.316;21.166;2022-07-30T06:17:50;18.50;99.90
25208;DHT22;13153;52.316;21.166;2022-07-30T06:20:18;18.50;99.90
25208;DHT22;13153;52.316;21.166;2022-07-30T06:22:44;18.50;99.90
25208;DHT22;13153;52.316;21.166;2022-07-30T06:25:10;18.50;99.90
25208;DHT22;13153;52.316;21.166;2022-07-30T06:27:37;18.50;99.90
25208;DHT22;13153;52.316;21.166;2022-07-30T06:30:07;18.60;99.90
25208;DHT22;13153;52.316;21.166;2022-07-30T06:32:34;18.50;99.90
25208;DHT22;13153;52.316;21.166;2022-07-30T06:35:01;18.50;99.90
25208;DHT22;13153;52.316;21.166;2022-07-30T06:37:27;18.40;99.90
25208;DHT22;13153;52.316;21.166;2022-07-30T06:39:53;18.40;99.90
25208;DHT22;13153;52.316;21.166;2022-07-30T06:42:19;18.40;99.90
25208;DHT22;13153;52.316;21.166;2022-07-30T06:44:45;18.30;99.90
25208;DHT22;13153;52.316;21.166;2022-07-30T06:47:11;18.30;99.90
25208;DHT22;13153;52.316;21.166;2022-07-30T06:49:37;18.30;99.90
25208;DHT22;13153;52.316;21.166;2022-07-30T06:52:04;18.40;99.90
25208;DHT22;13153;52.316;21.166;2022-07-30T06:54:30;18.50;99.90
25208;DHT22;13153;52.316;21.166;2022-07-30T06:56:56;18.50;99.90
25208;DHT22;13153;52.316;21.166;2022-07-30T06:59:21;18.50;99.90
25208;DHT22;13153;52.316;21.166;2022-07-30T07:01:47;18.60;99.90
25208;DHT22;13153;52.316;21.166;2022-07-30T07:04:13;18.70;99.90
25208;DHT22;13153;52.316;21.166;2022-07-30T07:06:39;18.80;99.90
25208;DHT22;13153;52.316;21.166;2022-07-30T07:09:06;18.90;99.90
25208;DHT22;13153;52.316;21.166;2022-07-30T07:11:31;19.00;99.90
25208;DHT22;13153;52.316;21.166;2022-07-30T07:13:57;19.00;99.90
25208;DHT22;13153;52.316;21.166;2022-07-30T07:16:23;19.00;99.90
25208;DHT22;13153;52.316;21.166;2022-07-30T07:18:52;19.00;99.90
25208;DHT22;13153;52.316;21.166;2022-07-30T07:21:19;18.90;99.90
25208;DHT22;13153;52.316;21.166;2022-07-30T07:23:46;18.90;99.90
25208;DHT22;13153;52.316;21.166;2022-07-30T07:26:15;18.80;99.90
25208;DHT22;13153;52.316;21.166;2022-07-30T07:28:42;18.90;99.90
25208;DHT22;13153;52.316;21.166;2022-07-30T07:31:09;18.90;99.90
25208;DHT22;13153;52.316;21.166;2022-07-30T07:33:36;19.00;99.90
25208;DHT22;13153;52.316;21.166;2022-07-30T07:36:02;19.10;99.90
25208;DHT22;13153;52.316;21.166;2022-07-30T07:38:29;19.20;99.90
25208;DHT22;13153;52.316;21.166;2022-07-30T07:40:54;19.20;99.90
25208;DHT22;13153;52.316;21.166;2022-07-30T07:43:20;19.30;99.90
25208;DHT22;13153;52.316;21.166;2022-07-30T07:45:46;19.30;99.90
25208;DHT22;13153;52.316;21.166;2022-07-30T07:48:12;19.20;99.90
25208;DHT22;13153;52.316;21.166;2022-07-30T07:50:38;19.30;99.90
25208;DHT22;13153;52.316;21.166;2022-07-30T07:53:05;19.20;99.90
25208;DHT22;13153;52.316;21.166;2022-07-30T07:55:31;19.40;99.90
25208;DHT22;13153;52.316;21.166;2022-07-30T07:57:57;19.30;99.90
25208;DHT22;13153;52.316;21.166;2022-07-30T08:00:22;19.50;99.90
25208;DHT22;13153;52.316;21.166;2022-07-30T08:02:49;19.50;99.90
25208;DHT22;13153;52.316;21.166;2022-07-30T08:05:15;19.60;99.90
25208;DHT22;13153;52.316;21.166;2022-07-30T08:07:42;19.60;99.90
25208;DHT22;13153;52.316;21.166;2022-07-30T08:10:09;19.80;99.90
25208;DHT22;13153;52.316;21.166;2022-07-30T08:12:38;19.90;99.90
25208;DHT22;13153;52.316;21.166;2022-07-30T08:15:05;19.90;99.90
25208;DHT22;13153;52.316;21.166;2022-07-30T08:17:31;20.00;99.90
25208;DHT22;13153;52.316;21.166;2022-07-30T08:19:58;20.10;99.90
25208;DHT22;13153;52.316;21.166;2022-07-30T08:22:25;20.10;99.90
25208;DHT22;13153;52.316;21.166;2022-07-30T08:24:52;20.20;99.90
25208;DHT22;13153;52.316;21.166;2022-07-30T08:27:18;20.20;99.90
25208;DHT22;13153;52.316;21.166;2022-07-30T08:29:44;20.30;99.90
25208;DHT22;13153;52.316;21.166;2022-07-30T08:32:10;20.30;99.90
25208;DHT22;13153;52.316;21.166;2022-07-30T08:34:35;20.40;99.90
25208;DHT22;13153;52.316;21.166;2022-07-30T08:37:01;20.50;99.90
25208;DHT22;13153;52.316;21.166;2022-07-30T08:39:27;20.50;99.90
25208;DHT22;13153;52.316;21.166;2022-07-30T08:41:53;20.50;99.90
25208;DHT22;13153;52.316;21.166;2022-07-30T08:44:19;20.60;99.90
25208;DHT22;13153;52.316;21.166;2022-07-30T08:46:46;20.70;99.90
25208;DHT22;13153;52.316;21.166;2022-07-30T08:49:13;20.70;99.90
25208;DHT22;13153;52.316;21.166;2022-07-30T08:51:40;20.80;99.90
25208;DHT22;13153;52.316;21.166;2022-07-30T08:54:06;20.90;99.90
25208;DHT22;13153;52.316;21.166;2022-07-30T08:56:33;21.00;99.90
25208;DHT22;13153;52.316;21.166;2022-07-30T08:58:59;21.20;99.90
25208;DHT22;13153;52.316;21.166;2022-07-30T09:01:26;21.40;99.90
25208;DHT22;13153;52.316;21.166;2022-07-30T09:03:52;21.70;99.90
25208;DHT22;13153;52.316;21.166;2022-07-30T09:06:18;21.90;99.90
25208;DHT22;13153;52.316;21.166;2022-07-30T09:08:44;22.10;99.90
25208;DHT22;13153;52.316;21.166;2022-07-30T09:11:10;22.10;99.90
25208;DHT22;13153;52.316;21.166;2022-07-30T09:13:38;22.00;99.90
25208;DHT22;13153;52.316;21.166;2022-07-30T09:16:38;22.00;99.90
25208;DHT22;13153;52.316;21.166;2022-07-30T09:19:19;21.90;99.90
25208;DHT22;13153;52.316;21.166;2022-07-30T09:21:59;21.90;99.90
25208;DHT22;13153;52.316;21.166;2022-07-30T09:24:26;21.80;99.90
25208;DHT22;13153;52.316;21.166;2022-07-30T09:26:57;21.70;99.90
25208;DHT22;13153;52.316;21.166;2022-07-30T09:29:28;21.60;99.90
25208;DHT22;13153;52.316;21.166;2022-07-30T09:32:02;21.60;99.90
25208;DHT22;13153;52.316;21.166;2022-07-30T09:34:35;21.50;99.90
25208;DHT22;13153;52.316;21.166;2022-07-30T09:37:15;21.60;99.90
25208;DHT22;13153;52.316;21.166;2022-07-30T09:39:42;21.60;99.90
25208;DHT22;13153;52.316;21.166;2022-07-30T09:42:21;21.70;99.90
25208;DHT22;13153;52.316;21.166;2022-07-30T09:44:51;21.80;99.90
25208;DHT22;13153;52.316;21.166;2022-07-30T09:47:31;21.80;99.90
25208;DHT22;13153;52.316;21.166;2022-07-30T09:50:17;22.00;99.90
25208;DHT22;13153;52.316;21.166;2022-07-30T09:52:45;22.10;99.90
25208;DHT22;13153;52.316;21.166;2022-07-30T09:55:12;22.10;99.90
25208;DHT22;13153;52.316;21.166;2022-07-30T10:00:24;22.20;99.90
25208;DHT22;13153;52.316;21.166;2022-07-30T10:02:52;22.30;99.90
25208;DHT22;13153;52.316;21.166;2022-07-30T10:05:19;22.40;99.90
25208;DHT22;13153;52.316;21.166;2022-07-30T10:07:55;22.30;99.90
25208;DHT22;13153;52.316;21.166;2022-07-30T10:10:28;22.30;99.90
25208;DHT22;13153;52.316;21.166;2022-07-30T10:13:00;22.30;99.90
25208;DHT22;13153;52.316;21.166;2022-07-30T10:15:37;22.20;99.90
25208;DHT22;13153;52.316;21.166;2022-07-30T10:18:04;22.10;99.90
25208;DHT22;13153;52.316;21.166;2022-07-30T10:20:31;21.90;99.90
25208;DHT22;13153;52.316;21.166;2022-07-30T10:22:57;21.80;99.90
25208;DHT22;13153;52.316;21.166;2022-07-30T10:25:25;21.80;99.90
25208;DHT22;13153;52.316;21.166;2022-07-30T10:27:51;21.80;99.90
25208;DHT22;13153;52.316;21.166;2022-07-30T10:30:18;21.80;99.90
25208;DHT22;13153;52.316;21.166;2022-07-30T10:32:45;21.70;99.90
25208;DHT22;13153;52.316;21.166;2022-07-30T10:35:12;21.70;99.90
25208;DHT22;13153;52.316;21.166;2022-07-30T10:37:44;21.70;99.90
25208;DHT22;13153;52.316;21.166;2022-07-30T10:48:47;21.80;99.90
25208;DHT22;13153;52.316;21.166;2022-07-30T10:51:13;21.80;99.90
25208;DHT22;13153;52.316;21.166;2022-07-30T10:53:43;21.80;99.90
25208;DHT22;13153;52.316;21.166;2022-07-30T11:04:25;21.70;99.90
25208;DHT22;13153;52.316;21.166;2022-07-30T11:09:46;21.60;99.90
25208;DHT22;13153;52.316;21.166;2022-07-30T11:12:12;21.60;99.90
25208;DHT22;13153;52.316;21.166;2022-07-30T11:17:11;21.60;99.90
25208;DHT22;13153;52.316;21.166;2022-07-30T11:20:13;21.60;99.90
25208;DHT22;13153;52.316;21.166;2022-07-30T11:22:39;21.60;99.90
25208;DHT22;13153;52.316;21.166;2022-07-30T11:25:06;21.60;99.90
25208;DHT22;13153;52.316;21.166;2022-07-30T11:27:44;21.60;99.90
25208;DHT22;13153;52.316;21.166;2022-07-30T11:32:41;21.50;99.90
25208;DHT22;13153;52.316;21.166;2022-07-30T11:38:08;21.50;99.90
25208;DHT22;13153;52.316;21.166;2022-07-30T11:46:12;21.40;99.90
25208;DHT22;13153;52.316;21.166;2022-07-30T11:49:00;21.40;99.90
25208;DHT22;13153;52.316;21.166;2022-07-30T11:51:59;21.40;99.90
25208;DHT22;13153;52.316;21.166;2022-07-30T11:54:24;21.40;99.90
25208;DHT22;13153;52.316;21.166;2022-07-30T11:56:53;21.40;99.90
25208;DHT22;13153;52.316;21.166;2022-07-30T11:59:23;21.30;99.90
25208;DHT22;13153;52.316;21.166;2022-07-30T12:01:53;21.20;99.90
25208;DHT22;13153;52.316;21.166;2022-07-30T12:04:25;21.20;99.90
25208;DHT22;13153;52.316;21.166;2022-07-30T12:06:51;21.10;99.90
25208;DHT22;13153;52.316;21.166;2022-07-30T12:09:21;21.10;99.90
25208;DHT22;13153;52.316;21.166;2022-07-30T12:11:48;21.10;99.90
25208;DHT22;13153;52.316;21.166;2022-07-30T12:14:14;21.00;99.90
25208;DHT22;13153;52.316;21.166;2022-07-30T12:16:48;21.00;99.90
25208;DHT22;13153;52.316;21.166;2022-07-30T12:19:15;21.00;99.90
25208;DHT22;13153;52.316;21.166;2022-07-30T12:21:41;20.90;99.90
25208;DHT22;13153;52.316;21.166;2022-07-30T12:24:07;20.90;99.90
25208;DHT22;13153;52.316;21.166;2022-07-30T12:26:34;20.90;99.90
25208;DHT22;13153;52.316;21.166;2022-07-30T12:29:06;20.80;99.90
25208;DHT22;13153;52.316;21.166;2022-07-30T12:31:38;20.70;99.90
25208;DHT22;13153;52.316;21.166;2022-07-30T12:34:18;20.60;99.90
25208;DHT22;13153;52.316;21.166;2022-07-30T12:36:45;20.60;99.90
25208;DHT22;13153;52.316;21.166;2022-07-30T12:39:21;20.50;99.90
25208;DHT22;13153;52.316;21.166;2022-07-30T12:41:53;20.40;99.90
25208;DHT22;13153;52.316;21.166;2022-07-30T12:47:03;20.40;99.90
25208;DHT22;13153;52.316;21.166;2022-07-30T12:49:31;20.40;99.90
25208;DHT22;13153;52.316;21.166;2022-07-30T12:51:57;20.40;99.90
25208;DHT22;13153;52.316;21.166;2022-07-30T12:54:23;20.40;99.90
25208;DHT22;13153;52.316;21.166;2022-07-30T12:56:57;20.40;99.90
25208;DHT22;13153;52.316;21.166;2022-07-30T12:59:24;20.40;99.90
25208;DHT22;13153;52.316;21.166;2022-07-30T13:01:51;20.40;99.90
25208;DHT22;13153;52.316;21.166;2022-07-30T13:04:18;20.40;99.90
25208;DHT22;13153;52.316;21.166;2022-07-30T13:07:02;20.50;99.90
25208;DHT22;13153;52.316;21.166;2022-07-30T13:09:33;20.40;99.90
25208;DHT22;13153;52.316;21.166;2022-07-30T13:11:59;20.40;99.90
25208;DHT22;13153;52.316;21.166;2022-07-30T13:14:25;20.40;99.90
25208;DHT22;13153;52.316;21.166;2022-07-30T13:16:53;20.40;99.90
25208;DHT22;13153;52.316;21.166;2022-07-30T13:19:21;20.40;99.90
25208;DHT22;13153;52.316;21.166;2022-07-30T13:21:47;20.30;99.90
25208;DHT22;13153;52.316;21.166;2022-07-30T13:24:13;20.30;99.90
25208;DHT22;13153;52.316;21.166;2022-07-30T13:26:39;20.30;99.90
25208;DHT22;13153;52.316;21.166;2022-07-30T13:29:05;20.20;99.90
25208;DHT22;13153;52.316;21.166;2022-07-30T13:31:30;20.20;99.90
25208;DHT22;13153;52.316;21.166;2022-07-30T13:33:56;20.20;99.90
25208;DHT22;13153;52.316;21.166;2022-07-30T13:36:22;20.10;99.90
25208;DHT22;13153;52.316;21.166;2022-07-30T13:38:48;20.10;99.90
25208;DHT22;13153;52.316;21.166;2022-07-30T13:41:14;20.10;99.90
25208;DHT22;13153;52.316;21.166;2022-07-30T13:43:41;20.10;99.90
25208;DHT22;13153;52.316;21.166;2022-07-30T13:46:07;20.10;99.90
25208;DHT22;13153;52.316;21.166;2022-07-30T13:48:33;20.10;99.90
25208;DHT22;13153;52.316;21.166;2022-07-30T13:51:03;20.10;99.90
25208;DHT22;13153;52.316;21.166;2022-07-30T13:53:31;20.20;99.90
25208;DHT22;13153;52.316;21.166;2022-07-30T13:55:57;20.10;99.90
25208;DHT22;13153;52.316;21.166;2022-07-30T13:58:25;20.20;99.90
25208;DHT22;13153;52.316;21.166;2022-07-30T14:00:52;20.10;99.90
25208;DHT22;13153;52.316;21.166;2022-07-30T14:03:18;20.10;99.90
25208;DHT22;13153;52.316;21.166;2022-07-30T14:05:43;20.10;99.90
25208;DHT22;13153;52.316;21.166;2022-07-30T14:08:10;20.10;99.90
25208;DHT22;13153;52.316;21.166;2022-07-30T14:10:37;20.00;99.90
25208;DHT22;13153;52.316;21.166;2022-07-30T14:13:05;20.00;99.90
25208;DHT22;13153;52.316;21.166;2022-07-30T14:15:32;20.00;99.90
25208;DHT22;13153;52.316;21.166;2022-07-30T14:17:59;20.00;99.90
25208;DHT22;13153;52.316;21.166;2022-07-30T14:20:25;19.80;99.90
25208;DHT22;13153;52.316;21.166;2022-07-30T14:22:52;19.90;99.90
25208;DHT22;13153;52.316;21.166;2022-07-30T14:25:18;19.80;99.90
25208;DHT22;13153;52.316;21.166;2022-07-30T14:27:44;19.80;99.90
25208;DHT22;13153;52.316;21.166;2022-07-30T14:30:10;19.70;99.90
25208;DHT22;13153;52.316;21.166;2022-07-30T14:32:37;19.70;99.90
25208;DHT22;13153;52.316;21.166;2022-07-30T14:35:05;19.60;99.90
25208;DHT22;13153;52.316;21.166;2022-07-30T14:37:37;19.50;99.90
25208;DHT22;13153;52.316;21.166;2022-07-30T14:40:08;19.50;99.90
25208;DHT22;13153;52.316;21.166;2022-07-30T14:42:36;19.50;99.90
25208;DHT22;13153;52.316;21.166;2022-07-30T14:45:05;19.50;99.90
25208;DHT22;13153;52.316;21.166;2022-07-30T14:47:32;19.50;99.90
25208;DHT22;13153;52.316;21.166;2022-07-30T14:49:58;19.50;99.90
25208;DHT22;13153;52.316;21.166;2022-07-30T14:52:24;19.50;99.90
25208;DHT22;13153;52.316;21.166;2022-07-30T14:54:50;19.60;99.90
25208;DHT22;13153;52.316;21.166;2022-07-30T14:57:16;19.70;99.90
25208;DHT22;13153;52.316;21.166;2022-07-30T14:59:43;19.70;99.90
25208;DHT22;13153;52.316;21.166;2022-07-30T15:02:09;19.80;99.90
25208;DHT22;13153;52.316;21.166;2022-07-30T15:04:34;19.90;99.90
25208;DHT22;13153;52.316;21.166;2022-07-30T15:07:00;19.90;99.90
25208;DHT22;13153;52.316;21.166;2022-07-30T15:09:26;19.90;99.90
25208;DHT22;13153;52.316;21.166;2022-07-30T15:11:52;20.00;99.90
25208;DHT22;13153;52.316;21.166;2022-07-30T15:14:18;20.00;99.90
25208;DHT22;13153;52.316;21.166;2022-07-30T15:16:43;20.00;99.90
25208;DHT22;13153;52.316;21.166;2022-07-30T15:19:09;19.90;99.90
25208;DHT22;13153;52.316;21.166;2022-07-30T15:21:37;19.90;99.90
25208;DHT22;13153;52.316;21.166;2022-07-30T15:24:03;19.80;99.90
25208;DHT22;13153;52.316;21.166;2022-07-30T15:26:29;19.70;99.90
25208;DHT22;13153;52.316;21.166;2022-07-30T15:28:55;19.70;99.90
25208;DHT22;13153;52.316;21.166;2022-07-30T15:31:20;19.70;99.90
25208;DHT22;13153;52.316;21.166;2022-07-30T15:33:46;19.70;99.90
25208;DHT22;13153;52.316;21.166;2022-07-30T15:36:13;19.70;99.90
25208;DHT22;13153;52.316;21.166;2022-07-30T15:38:40;19.80;99.90
25208;DHT22;13153;52.316;21.166;2022-07-30T15:41:06;19.80;99.90
25208;DHT22;13153;52.316;21.166;2022-07-30T15:43:32;19.90;99.90
25208;DHT22;13153;52.316;21.166;2022-07-30T15:45:58;19.80;99.90
25208;DHT22;13153;52.316;21.166;2022-07-30T15:48:24;19.80;99.90
25208;DHT22;13153;52.316;21.166;2022-07-30T15:50:50;19.90;99.90
25208;DHT22;13153;52.316;21.166;2022-07-30T15:53:16;19.90;99.90
25208;DHT22;13153;52.316;21.166;2022-07-30T15:55:42;19.80;99.90
25208;DHT22;13153;52.316;21.166;2022-07-30T15:58:08;19.80;99.90
25208;DHT22;13153;52.316;21.166;2022-07-30T16:00:33;19.80;99.90